Time,TemperatureF,DewpointF,PressureIn,WindDirection,WindDirectionDegrees,WindSpeedMPH,WindSpeedGustMPH,Humidity,HourlyPrecipIn,Conditions,Clouds,dailyrainin,SoftwareType,DateUTC
2013-12-11 00:06:00,19.8,13.3,30.14,SSW,202,0.0,0.0,76,0.00,,,0.00,WUHU21623XXSP,2013-12-11 05:06:00,
2013-12-11 00:11:00,19.6,13.1,30.14,SW,225,0.0,2.5,76,0.00,,,0.00,WUHU21623XXSP,2013-12-11 05:11:00,
2013-12-11 00:16:00,19.6,13.1,30.14,SW,225,2.0,2.5,76,0.00,,,0.00,WUHU21623XXSP,2013-12-11 05:16:00,
2013-12-11 00:21:00,19.6,13.1,30.14,SW,225,0.0,2.0,76,0.00,,,0.00,WUHU21623XXSP,2013-12-11 05:21:00,
2013-12-11 00:26:00,19.6,13.1,30.15,SW,225,0.0,0.0,76,0.00,,,0.00,WUHU21623XXSP,2013-12-11 05:26:00,
2013-12-11 00:31:00,19.6,13.1,30.14,SW,225,3.6,3.6,76,0.00,,,0.00,WUHU21623XXSP,2013-12-11 05:31:00,
2013-12-11 00:36:00,19.6,13.1,30.14,SW,225,2.0,8.5,76,0.00,,,0.00,WUHU21623XXSP,2013-12-11 05:36:00,
2013-12-11 00:41:00,19.6,13.1,30.15,SW,225,3.1,8.5,76,0.00,,,0.00,WUHU21623XXSP,2013-12-11 05:41:00,
2013-12-11 00:46:00,19.4,13.0,30.15,NNW,337,0.0,3.1,76,0.00,,,0.00,WUHU21623XXSP,2013-12-11 05:46:00,
2013-12-11 00:51:00,19.4,13.0,30.16,SSW,202,0.0,2.9,76,0.00,,,0.00,WUHU21623XXSP,2013-12-11 05:51:00,
2013-12-11 00:56:00,19.4,13.0,30.16,SSW,202,0.0,1.3,76,0.00,,,0.00,WUHU21623XXSP,2013-12-11 05:56:00,
2013-12-11 01:01:00,19.4,13.0,30.16,SW,225,0.0,1.3,76,0.00,,,0.00,WUHU21623XXSP,2013-12-11 06:01:00,
2013-12-11 01:06:00,19.4,13.3,30.16,SSW,202,0.0,3.1,77,0.00,,,0.00,WUHU21623XXSP,2013-12-11 06:06:00,
2013-12-11 01:11:00,19.4,13.3,30.15,SSW,202,1.8,3.1,77,0.00,,,0.00,WUHU21623XXSP,2013-12-11 06:11:00,
2013-12-11 01:16:00,19.4,13.3,30.15,SW,225,0.0,1.8,77,0.00,,,0.00,WUHU21623XXSP,2013-12-11 06:16:00,
2013-12-11 01:21:00,19.4,13.3,30.16,North,0,0.0,0.0,77,0.00,,,0.00,WUHU21623XXSP,2013-12-11 06:21:00,
2013-12-11 01:26:00,19.4,13.3,30.16,SW,225,5.4,5.4,77,0.00,,,0.00,WUHU21623XXSP,2013-12-11 06:26:00,
2013-12-11 01:31:00,19.4,13.3,30.16,SW,225,0.0,5.4,77,0.00,,,0.00,WUHU21623XXSP,2013-12-11 06:31:00,
2013-12-11 01:36:00,19.4,13.3,30.16,SSW,202,0.0,0.0,77,0.00,,,0.00,WUHU21623XXSP,2013-12-11 06:36:00,
2013-12-11 01:41:00,19.6,13.4,30.16,SW,225,0.0,0.0,77,0.00,,,0.00,WUHU21623XXSP,2013-12-11 06:41:00,
2013-12-11 01:46:00,19.4,13.3,30.16,SW,225,6.5,6.5,77,0.00,,,0.00,WUHU21623XXSP,2013-12-11 06:46:00,
2013-12-11 01:51:00,19.4,13.6,30.16,SW,225,0.0,6.5,78,0.00,,,0.00,WUHU21623XXSP,2013-12-11 06:51:00,
2013-12-11 01:56:00,19.2,13.4,30.16,SSW,202,0.0,0.0,78,0.00,,,0.00,WUHU21623XXSP,2013-12-11 06:56:00,
2013-12-11 02:01:00,19.2,13.4,30.16,SSW,202,0.0,0.0,78,0.00,,,0.00,WUHU21623XXSP,2013-12-11 07:01:00,
2013-12-11 02:06:00,19.2,13.4,30.17,SSW,202,0.0,0.0,78,0.00,,,0.00,WUHU21623XXSP,2013-12-11 07:06:00,
2013-12-11 02:11:00,19.2,13.4,30.17,SW,225,0.0,2.0,78,0.00,,,0.00,WUHU21623XXSP,2013-12-11 07:11:00,
2013-12-11 02:16:00,19.2,13.4,30.17,SW,225,2.0,6.9,78,0.00,,,0.00,WUHU21623XXSP,2013-12-11 07:16:00,
2013-12-11 02:21:00,19.2,13.4,30.17,SW,225,0.0,6.9,78,0.00,,,0.00,WUHU21623XXSP,2013-12-11 07:21:00,
2013-12-11 02:26:00,19.2,13.4,30.18,SW,225,0.0,2.0,78,0.00,,,0.00,WUHU21623XXSP,2013-12-11 07:26:00,
2013-12-11 02:31:00,19.2,13.4,30.18,SW,225,0.0,0.0,78,0.00,,,0.00,WUHU21623XXSP,2013-12-11 07:31:00,
2013-12-11 02:36:00,19.2,13.4,30.18,SW,225,0.0,0.0,78,0.00,,,0.00,WUHU21623XXSP,2013-12-11 07:36:00,
2013-12-11 02:41:00,19.2,13.4,30.19,SW,225,0.0,1.3,78,0.00,,,0.00,WUHU21623XXSP,2013-12-11 07:41:00,
2013-12-11 02:46:00,19.2,13.4,30.19,SSW,202,4.3,4.3,78,0.00,,,0.00,WUHU21623XXSP,2013-12-11 07:46:00,
2013-12-11 02:51:00,19.2,13.4,30.19,SW,225,0.0,4.3,78,0.00,,,0.00,WUHU21623XXSP,2013-12-11 07:51:00,
2013-12-11 02:56:00,19.2,13.4,30.19,SW,225,0.0,6.3,78,0.00,,,0.00,WUHU21623XXSP,2013-12-11 07:56:00,
2013-12-11 03:01:00,19.2,13.4,30.20,SW,225,4.7,6.3,78,0.00,,,0.00,WUHU21623XXSP,2013-12-11 08:01:00,
2013-12-11 03:06:00,19.2,13.1,30.20,SSW,202,5.8,5.8,77,0.00,,,0.00,WUHU21623XXSP,2013-12-11 08:06:00,
2013-12-11 03:11:00,19.0,12.9,30.20,SSW,202,2.2,6.7,77,0.00,,,0.00,WUHU21623XXSP,2013-12-11 08:11:00,
2013-12-11 03:16:00,19.0,12.9,30.20,SW,225,0.0,6.7,77,0.00,,,0.00,WUHU21623XXSP,2013-12-11 08:16:00,
2013-12-11 03:21:00,18.9,12.9,30.19,SW,225,0.0,0.0,77,0.00,,,0.00,WUHU21623XXSP,2013-12-11 08:21:00,
2013-12-11 03:26:00,18.7,12.6,30.19,SW,225,0.0,0.0,77,0.00,,,0.00,WUHU21623XXSP,2013-12-11 08:26:00,
2013-12-11 03:31:00,18.5,12.4,30.19,SW,225,0.0,0.0,77,0.00,,,0.00,WUHU21623XXSP,2013-12-11 08:31:00,
2013-12-11 03:36:00,18.3,11.9,30.19,SW,225,0.0,0.0,76,0.00,,,0.00,WUHU21623XXSP,2013-12-11 08:36:00,
2013-12-11 03:41:00,18.3,11.9,30.19,SW,225,0.0,0.0,76,0.00,,,0.00,WUHU21623XXSP,2013-12-11 08:41:00,
2013-12-11 03:46:00,18.1,11.7,30.19,SSW,202,0.0,0.0,76,0.00,,,0.00,WUHU21623XXSP,2013-12-11 08:46:00,
2013-12-11 03:51:00,18.1,11.7,30.19,SW,225,0.0,0.0,76,0.00,,,0.00,WUHU21623XXSP,2013-12-11 08:51:00,
2013-12-11 03:56:00,17.8,11.4,30.19,SW,225,0.0,0.0,76,0.00,,,0.00,WUHU21623XXSP,2013-12-11 08:56:00,
2013-12-11 04:01:00,17.8,11.4,30.19,SW,225,0.0,2.5,76,0.00,,,0.00,WUHU21623XXSP,2013-12-11 09:01:00,
2013-12-11 04:06:00,17.8,11.4,30.19,SSW,202,0.0,2.5,76,0.00,,,0.00,WUHU21623XXSP,2013-12-11 09:06:00,
2013-12-11 04:11:00,17.4,11.0,30.19,SW,225,0.0,0.0,76,0.00,,,0.00,WUHU21623XXSP,2013-12-11 09:11:00,
2013-12-11 04:16:00,17.4,11.0,30.19,SW,225,2.2,2.2,76,0.00,,,0.00,WUHU21623XXSP,2013-12-11 09:16:00,
2013-12-11 04:21:00,17.2,10.9,30.20,SW,225,0.0,2.2,76,0.00,,,0.00,WUHU21623XXSP,2013-12-11 09:21:00,
2013-12-11 04:26:00,17.2,11.2,30.19,SSW,202,0.0,0.0,77,0.00,,,0.00,WUHU21623XXSP,2013-12-11 09:26:00,
2013-12-11 04:31:00,17.2,11.2,30.19,SSW,202,0.0,0.0,77,0.00,,,0.00,WUHU21623XXSP,2013-12-11 09:31:00,
2013-12-11 04:36:00,16.9,10.8,30.20,SW,225,6.5,6.5,77,0.00,,,0.00,WUHU21623XXSP,2013-12-11 09:36:00,
2013-12-11 04:41:00,16.9,10.8,30.19,SW,225,0.0,6.5,77,0.00,,,0.00,WUHU21623XXSP,2013-12-11 09:41:00,
2013-12-11 04:46:00,16.9,10.8,30.19,SW,225,0.0,0.0,77,0.00,,,0.00,WUHU21623XXSP,2013-12-11 09:46:00,
2013-12-11 04:51:00,16.7,10.7,30.20,SSW,202,0.0,0.0,77,0.00,,,0.00,WUHU21623XXSP,2013-12-11 09:51:00,
2013-12-11 04:56:00,16.5,10.7,30.20,SSW,202,0.0,0.0,77,0.00,,,0.00,WUHU21623XXSP,2013-12-11 09:56:00,
2013-12-11 05:01:00,16.5,10.5,30.20,SW,225,1.3,1.3,77,0.00,,,0.00,WUHU21623XXSP,2013-12-11 10:01:00,
2013-12-11 05:06:00,16.5,10.8,30.21,SSW,202,0.0,1.3,78,0.00,,,0.00,WUHU21623XXSP,2013-12-11 10:06:00,
2013-12-11 05:11:00,16.5,10.8,30.21,SSW,202,0.0,0.0,78,0.00,,,0.00,WUHU21623XXSP,2013-12-11 10:11:00,
2013-12-11 05:16:00,16.7,11.0,30.21,SSW,202,4.3,4.3,78,0.00,,,0.00,WUHU21623XXSP,2013-12-11 10:16:00,
2013-12-11 05:21:00,16.7,11.0,30.20,SSW,202,0.0,4.3,78,0.00,,,0.00,WUHU21623XXSP,2013-12-11 10:21:00,
2013-12-11 05:26:00,16.9,11.4,30.20,SW,225,0.0,0.0,79,0.00,,,0.00,WUHU21623XXSP,2013-12-11 10:26:00,
2013-12-11 05:31:00,16.9,11.4,30.20,SSW,202,0.7,6.3,79,0.00,,,0.00,WUHU21623XXSP,2013-12-11 10:31:00,
2013-12-11 05:36:00,16.9,11.4,30.20,SW,225,0.0,6.3,79,0.00,,,0.00,WUHU21623XXSP,2013-12-11 10:36:00,
2013-12-11 05:41:00,17.2,11.8,30.19,SW,225,7.8,7.8,79,0.00,,,0.00,WUHU21623XXSP,2013-12-11 10:41:00,
2013-12-11 05:46:00,17.2,11.8,30.19,SW,225,0.0,7.8,79,0.00,,,0.00,WUHU21623XXSP,2013-12-11 10:46:00,
2013-12-11 05:51:00,17.2,11.8,30.19,SW,225,0.0,0.0,79,0.00,,,0.00,WUHU21623XXSP,2013-12-11 10:51:00,
2013-12-11 05:56:00,17.2,11.8,30.20,SW,225,0.0,8.3,79,0.00,,,0.00,WUHU21623XXSP,2013-12-11 10:56:00,
2013-12-11 06:01:00,17.2,11.8,30.20,SW,225,0.0,8.3,79,0.00,,,0.00,WUHU21623XXSP,2013-12-11 11:01:00,
2013-12-11 06:06:00,17.2,12.1,30.20,SW,225,0.0,5.4,80,0.00,,,0.00,WUHU21623XXSP,2013-12-11 11:06:00,
2013-12-11 06:11:00,17.2,12.1,30.20,SSW,202,0.0,0.0,80,0.00,,,0.00,WUHU21623XXSP,2013-12-11 11:11:00,
2013-12-11 06:16:00,17.2,12.1,30.20,SSW,202,2.0,2.0,80,0.00,,,0.00,WUHU21623XXSP,2013-12-11 11:16:00,
2013-12-11 06:21:00,17.2,12.1,30.20,SSW,202,0.0,2.0,80,0.00,,,0.00,WUHU21623XXSP,2013-12-11 11:21:00,
2013-12-11 06:26:00,17.2,12.1,30.20,SSW,202,2.2,2.2,80,0.00,,,0.00,WUHU21623XXSP,2013-12-11 11:26:00,
2013-12-11 06:31:00,16.9,11.7,30.20,SW,225,0.0,2.2,80,0.00,,,0.00,WUHU21623XXSP,2013-12-11 11:31:00,
2013-12-11 06:36:00,16.9,11.7,30.20,SW,225,0.0,2.2,80,0.00,,,0.00,WUHU21623XXSP,2013-12-11 11:36:00,
2013-12-11 06:41:00,16.9,11.7,30.20,SSW,202,0.0,0.0,80,0.00,,,0.00,WUHU21623XXSP,2013-12-11 11:41:00,
2013-12-11 06:46:00,16.9,11.7,30.20,SSW,202,0.0,0.0,80,0.00,,,0.00,WUHU21623XXSP,2013-12-11 11:46:00,
2013-12-11 06:51:00,16.9,11.7,30.21,SW,225,0.0,0.0,80,0.00,,,0.00,WUHU21623XXSP,2013-12-11 11:51:00,
2013-12-11 06:56:00,16.9,11.7,30.20,SSW,202,0.0,0.0,80,0.00,,,0.00,WUHU21623XXSP,2013-12-11 11:56:00,
2013-12-11 07:01:00,16.9,11.7,30.21,SW,225,0.0,0.0,80,0.00,,,0.00,WUHU21623XXSP,2013-12-11 12:01:00,
2013-12-11 07:06:00,16.9,11.7,30.21,SSW,202,0.0,0.0,80,0.00,,,0.00,WUHU21623XXSP,2013-12-11 12:06:00,
2013-12-11 07:11:00,16.9,11.7,30.21,SW,225,0.0,0.0,80,0.00,,,0.00,WUHU21623XXSP,2013-12-11 12:11:00,
2013-12-11 07:16:00,16.9,11.7,30.21,SSW,202,3.1,3.1,80,0.00,,,0.00,WUHU21623XXSP,2013-12-11 12:16:00,
2013-12-11 07:21:00,16.9,11.7,30.21,SSW,202,3.1,3.1,80,0.00,,,0.00,WUHU21623XXSP,2013-12-11 12:21:00,
2013-12-11 07:26:00,16.9,11.7,30.22,SW,225,0.0,3.1,80,0.00,,,0.00,WUHU21623XXSP,2013-12-11 12:26:00,
2013-12-11 07:31:00,17.1,12.1,30.22,SSW,202,0.0,0.0,81,0.00,,,0.00,WUHU21623XXSP,2013-12-11 12:31:00,
2013-12-11 07:36:00,17.2,12.3,30.21,SSW,202,0.0,0.0,81,0.00,,,0.00,WUHU21623XXSP,2013-12-11 12:36:00,
2013-12-11 07:41:00,17.2,12.3,30.22,South,180,0.0,1.1,81,0.00,,,0.00,WUHU21623XXSP,2013-12-11 12:41:00,
2013-12-11 07:46:00,17.2,12.3,30.22,SSW,202,0.0,1.1,81,0.00,,,0.00,WUHU21623XXSP,2013-12-11 12:46:00,
2013-12-11 07:51:00,17.4,12.5,30.22,South,180,0.0,0.0,81,0.00,,,0.00,WUHU21623XXSP,2013-12-11 12:51:00,
2013-12-11 07:56:00,17.4,12.5,30.22,SSW,202,0.7,0.7,81,0.00,,,0.00,WUHU21623XXSP,2013-12-11 12:56:00,
2013-12-11 08:01:00,17.4,12.5,30.22,SSW,202,0.0,8.3,81,0.00,,,0.00,WUHU21623XXSP,2013-12-11 13:01:00,
2013-12-11 08:06:00,17.4,12.5,30.22,SSE,157,4.0,8.3,81,0.00,,,0.00,WUHU21623XXSP,2013-12-11 13:06:00,
2013-12-11 08:11:00,17.4,12.5,30.22,SW,225,0.0,4.0,81,0.00,,,0.00,WUHU21623XXSP,2013-12-11 13:11:00,
2013-12-11 08:16:00,17.4,12.5,30.23,SW,225,0.0,0.0,81,0.00,,,0.00,WUHU21623XXSP,2013-12-11 13:16:00,
2013-12-11 08:21:00,17.4,12.5,30.23,SW,225,0.0,0.0,81,0.00,,,0.00,WUHU21623XXSP,2013-12-11 13:21:00,
2013-12-11 08:26:00,17.4,12.5,30.23,South,180,0.0,0.0,81,0.00,,,0.00,WUHU21623XXSP,2013-12-11 13:26:00,
2013-12-11 08:31:00,17.4,12.5,30.24,SW,225,0.0,0.0,81,0.00,,,0.00,WUHU21623XXSP,2013-12-11 13:31:00,
2013-12-11 08:36:00,17.4,12.5,30.24,SW,225,0.0,0.0,81,0.00,,,0.00,WUHU21623XXSP,2013-12-11 13:36:00,
2013-12-11 08:40:00,17.4,12.5,30.23,SW,225,0.0,0.0,81,0.00,,,0.00,WUHU21623XXSP,2013-12-11 13:40:00,
2013-12-11 08:45:00,17.8,12.8,30.24,SW,225,0.0,0.0,81,0.00,,,0.00,WUHU21623XXSP,2013-12-11 13:45:00,
2013-12-11 08:50:00,17.4,12.5,30.24,SSW,202,0.0,0.0,81,0.00,,,0.00,WUHU21623XXSP,2013-12-11 13:50:00,
2013-12-11 08:55:00,17.8,12.8,30.24,SSW,202,0.0,4.3,81,0.00,,,0.00,WUHU21623XXSP,2013-12-11 13:55:00,
2013-12-11 09:00:00,17.8,12.8,30.24,SW,225,1.3,4.3,81,0.00,,,0.00,WUHU21623XXSP,2013-12-11 14:00:00,
2013-12-11 09:05:00,17.8,12.8,30.24,SW,225,0.0,1.3,81,0.00,,,0.00,WUHU21623XXSP,2013-12-11 14:05:00,
2013-12-11 09:10:00,18.0,13.0,30.24,SW,225,0.0,0.9,81,0.00,,,0.00,WUHU21623XXSP,2013-12-11 14:10:00,
2013-12-11 09:15:00,18.0,13.3,30.24,SSW,202,0.0,0.0,82,0.00,,,0.00,WUHU21623XXSP,2013-12-11 14:15:00,
2013-12-11 09:20:00,18.1,13.5,30.24,SW,225,0.0,0.0,82,0.00,,,0.00,WUHU21623XXSP,2013-12-11 14:20:00,
2013-12-11 09:25:00,18.1,13.5,30.25,SSW,202,0.0,0.0,82,0.00,,,0.00,WUHU21623XXSP,2013-12-11 14:25:00,
2013-12-11 09:30:00,18.3,13.6,30.25,SSW,202,0.0,0.0,82,0.00,,,0.00,WUHU21623XXSP,2013-12-11 14:30:00,
2013-12-11 09:35:00,18.3,13.6,30.25,SW,225,0.0,0.0,82,0.00,,,0.00,WUHU21623XXSP,2013-12-11 14:35:00,
2013-12-11 09:40:00,18.7,13.8,30.25,SSE,157,0.0,0.0,82,0.00,,,0.00,WUHU21623XXSP,2013-12-11 14:40:00,
2013-12-11 09:45:00,18.7,14.0,30.25,SSW,202,0.0,0.0,82,0.00,,,0.00,WUHU21623XXSP,2013-12-11 14:45:00,
2013-12-11 09:50:00,18.9,14.2,30.26,SSW,202,0.0,0.0,82,0.00,,,0.00,WUHU21623XXSP,2013-12-11 14:50:00,
2013-12-11 09:55:00,19.0,14.4,30.26,SW,225,0.0,3.8,82,0.00,,,0.00,WUHU21623XXSP,2013-12-11 14:55:00,
2013-12-11 10:01:00,19.2,14.5,30.26,SSW,202,0.0,3.8,82,0.00,,,0.00,WUHU21623XXSP,2013-12-11 15:01:00,
2013-12-11 10:06:00,19.2,14.5,30.27,SSW,202,0.0,0.0,81,0.00,,,0.00,WUHU21623XXSP,2013-12-11 15:06:00,
2013-12-11 10:11:00,19.2,14.3,30.26,SSW,202,0.0,0.0,81,0.00,,,0.00,WUHU21623XXSP,2013-12-11 15:11:00,
2013-12-11 10:16:00,19.2,14.3,30.26,SSW,202,0.0,4.0,81,0.00,,,0.00,WUHU21623XXSP,2013-12-11 15:16:00,
2013-12-11 10:21:00,19.4,14.4,30.26,SSW,202,0.0,4.0,81,0.00,,,0.00,WUHU21623XXSP,2013-12-11 15:21:00,
2013-12-11 10:26:00,19.6,14.6,30.26,SSW,202,0.0,7.2,81,0.00,,,0.00,WUHU21623XXSP,2013-12-11 15:26:00,
2013-12-11 10:31:00,19.6,14.6,30.26,SW,225,0.0,7.2,81,0.00,,,0.00,WUHU21623XXSP,2013-12-11 15:31:00,
2013-12-11 10:36:00,19.8,14.8,30.26,SW,225,2.5,2.5,81,0.00,,,0.00,WUHU21623XXSP,2013-12-11 15:36:00,
2013-12-11 10:41:00,19.9,15.0,30.26,SW,225,0.0,2.5,81,0.00,,,0.00,WUHU21623XXSP,2013-12-11 15:41:00,
2013-12-11 10:46:00,20.1,15.2,30.26,SSW,202,0.0,0.0,81,0.00,,,0.00,WUHU21623XXSP,2013-12-11 15:46:00,
2013-12-11 10:51:00,20.3,15.3,30.26,SW,225,0.0,0.0,81,0.00,,,0.00,WUHU21623XXSP,2013-12-11 15:51:00,
2013-12-11 10:56:00,20.5,15.3,30.26,SW,225,0.0,0.0,80,0.00,,,0.00,WUHU21623XXSP,2013-12-11 15:56:00,
2013-12-11 11:01:00,20.5,15.3,30.26,SSW,202,0.0,0.0,80,0.00,,,0.00,WUHU21623XXSP,2013-12-11 16:01:00,
2013-12-11 11:06:00,20.8,15.6,30.26,SSW,202,0.0,0.0,80,0.00,,,0.00,WUHU21623XXSP,2013-12-11 16:06:00,
2013-12-11 11:11:00,20.8,15.6,30.26,SW,225,0.0,0.0,80,0.00,,,0.00,WUHU21623XXSP,2013-12-11 16:11:00,
2013-12-11 11:16:00,21.0,15.8,30.25,SW,225,0.0,5.6,80,0.00,,,0.00,WUHU21623XXSP,2013-12-11 16:16:00,
2013-12-11 11:21:00,21.0,15.8,30.26,SSW,202,0.0,5.6,80,0.00,,,0.00,WUHU21623XXSP,2013-12-11 16:21:00,
2013-12-11 11:26:00,21.0,15.8,30.26,SSW,202,0.0,0.0,80,0.00,,,0.00,WUHU21623XXSP,2013-12-11 16:26:00,
2013-12-11 11:31:00,21.0,15.8,30.25,SW,225,0.0,0.0,80,0.00,,,0.00,WUHU21623XXSP,2013-12-11 16:31:00,
2013-12-11 11:36:00,21.0,15.8,30.25,North,0,0.0,0.0,80,0.00,,,0.00,WUHU21623XXSP,2013-12-11 16:36:00,
2013-12-11 11:41:00,20.8,15.6,30.25,SSW,202,4.0,6.3,80,0.00,,,0.00,WUHU21623XXSP,2013-12-11 16:41:00,
2013-12-11 11:46:00,20.5,15.3,30.24,NNW,337,5.6,6.3,80,0.00,,,0.00,WUHU21623XXSP,2013-12-11 16:46:00,
2013-12-11 11:51:00,20.1,14.9,30.24,NNW,337,0.0,5.6,80,0.00,,,0.00,WUHU21623XXSP,2013-12-11 16:51:00,
2013-12-11 11:55:00,19.9,14.7,30.24,NNW,337,2.5,5.6,80,0.00,,,0.00,WUHU21623XXSP,2013-12-11 16:55:00,
2013-12-11 12:00:00,19.9,14.7,30.24,NNW,337,0.0,2.5,80,0.00,,,0.00,WUHU21623XXSP,2013-12-11 17:00:00,
2013-12-11 12:05:00,19.9,15.0,30.24,North,0,0.0,5.4,81,0.00,,,0.00,WUHU21623XXSP,2013-12-11 17:05:00,
2013-12-11 12:10:00,19.8,14.8,30.24,NNW,337,6.9,6.9,81,0.00,,,0.00,WUHU21623XXSP,2013-12-11 17:10:00,
2013-12-11 12:15:00,19.6,14.6,30.24,North,0,0.0,6.9,81,0.00,,,0.00,WUHU21623XXSP,2013-12-11 17:15:00,
2013-12-11 12:20:00,19.6,14.6,30.24,SSW,202,4.3,6.9,81,0.00,,,0.00,WUHU21623XXSP,2013-12-11 17:20:00,
2013-12-11 12:25:00,19.8,14.8,30.24,SW,225,0.0,4.3,81,0.00,,,0.00,WUHU21623XXSP,2013-12-11 17:25:00,
2013-12-11 12:30:00,19.8,15.0,30.24,North,0,9.4,9.4,81,0.00,,,0.00,WUHU21623XXSP,2013-12-11 17:30:00,
2013-12-11 12:35:00,19.9,14.4,30.23,North,0,4.0,9.4,79,0.00,,,0.00,WUHU21623XXSP,2013-12-11 17:35:00,
2013-12-11 12:40:00,19.9,14.1,30.23,NNW,337,6.3,7.6,78,0.00,,,0.00,WUHU21623XXSP,2013-12-11 17:40:00,
2013-12-11 12:45:00,19.9,14.4,30.23,SSW,202,0.0,6.3,79,0.00,,,0.00,WUHU21623XXSP,2013-12-11 17:45:00,
2013-12-11 12:50:00,20.1,14.3,30.23,SSW,202,0.0,0.0,78,0.00,,,0.00,WUHU21623XXSP,2013-12-11 17:50:00,
2013-12-11 12:55:00,20.1,14.3,30.23,SW,225,0.0,6.0,78,0.00,,,0.00,WUHU21623XXSP,2013-12-11 17:55:00,
2013-12-11 13:00:00,20.3,14.2,30.23,SSW,202,6.0,7.4,77,0.00,,,0.00,WUHU21623XXSP,2013-12-11 18:00:00,
2013-12-11 13:05:00,20.5,14.0,30.23,NNW,337,14.8,14.8,76,0.00,,,0.00,WUHU21623XXSP,2013-12-11 18:05:00,
2013-12-11 13:10:00,20.8,14.1,30.23,SW,225,0.0,14.8,75,0.00,,,0.00,WUHU21623XXSP,2013-12-11 18:10:00,
2013-12-11 13:15:00,21.2,14.4,30.23,North,0,0.0,2.9,75,0.00,,,0.00,WUHU21623XXSP,2013-12-11 18:15:00,
2013-12-11 13:20:00,21.6,14.8,30.23,NNW,337,0.0,0.0,75,0.00,,,0.00,WUHU21623XXSP,2013-12-11 18:20:00,
2013-12-11 13:25:00,21.4,14.0,30.23,North,0,0.0,6.0,73,0.00,,,0.00,WUHU21623XXSP,2013-12-11 18:25:00,
2013-12-11 13:30:00,21.6,14.3,30.23,North,0,1.1,6.0,74,0.00,,,0.00,WUHU21623XXSP,2013-12-11 18:30:00,
2013-12-11 13:35:00,21.4,14.0,30.23,North,0,5.1,5.1,74,0.00,,,0.00,WUHU21623XXSP,2013-12-11 18:35:00,
2013-12-11 13:40:00,21.6,14.2,30.23,NNW,337,0.0,5.1,73,0.00,,,0.00,WUHU21623XXSP,2013-12-11 18:40:00,
2013-12-11 13:45:00,21.7,14.1,30.23,NNW,337,4.5,4.5,72,0.00,,,0.00,WUHU21623XXSP,2013-12-11 18:45:00,
2013-12-11 13:50:00,21.9,14.3,30.23,SW,225,0.0,6.9,72,0.00,,,0.00,WUHU21623XXSP,2013-12-11 18:50:00,
2013-12-11 13:55:00,21.9,13.9,30.23,North,0,2.0,8.7,70,0.00,,,0.00,WUHU21623XXSP,2013-12-11 18:55:00,
2013-12-11 14:00:00,21.7,13.5,30.23,North,0,6.9,8.7,70,0.00,,,0.00,WUHU21623XXSP,2013-12-11 19:00:00,
2013-12-11 14:05:00,21.4,12.7,30.23,NNW,337,7.4,7.4,69,0.00,,,0.00,WUHU21623XXSP,2013-12-11 19:05:00,
2013-12-11 14:10:00,21.0,12.1,30.23,NNW,337,7.2,7.4,68,0.00,,,0.00,WUHU21623XXSP,2013-12-11 19:10:00,
2013-12-11 14:15:00,20.8,11.9,30.23,SSW,202,6.5,7.2,68,0.00,,,0.00,WUHU21623XXSP,2013-12-11 19:15:00,
2013-12-11 14:20:00,21.0,12.1,30.23,SSW,202,0.0,6.5,68,0.00,,,0.00,WUHU21623XXSP,2013-12-11 19:20:00,
2013-12-11 14:25:00,20.8,11.5,30.24,North,0,3.8,3.8,67,0.00,,,0.00,WUHU21623XXSP,2013-12-11 19:25:00,
2013-12-11 14:30:00,20.5,11.2,30.23,SSW,202,0.0,3.8,67,0.00,,,0.00,WUHU21623XXSP,2013-12-11 19:30:00,
2013-12-11 14:35:00,20.3,10.7,30.24,North,0,0.0,0.0,66,0.00,,,0.00,WUHU21623XXSP,2013-12-11 19:35:00,
2013-12-11 14:40:00,19.8,10.5,30.24,SSW,202,0.0,2.9,67,0.00,,,0.00,WUHU21623XXSP,2013-12-11 19:40:00,
2013-12-11 14:45:00,19.9,10.6,30.24,NNW,337,4.9,6.3,67,0.00,,,0.00,WUHU21623XXSP,2013-12-11 19:45:00,
2013-12-11 14:50:00,19.9,10.6,30.24,North,0,0.0,6.3,67,0.00,,,0.00,WUHU21623XXSP,2013-12-11 19:50:00,
2013-12-11 14:55:00,20.1,10.8,30.25,North,0,1.6,1.6,67,0.00,,,0.00,WUHU21623XXSP,2013-12-11 19:55:00,
2013-12-11 15:00:00,19.9,10.6,30.25,SSW,202,4.3,4.3,67,0.00,,,0.00,WUHU21623XXSP,2013-12-11 20:00:00,
2013-12-11 15:05:00,19.9,10.6,30.25,NNW,337,7.6,7.6,67,0.00,,,0.00,WUHU21623XXSP,2013-12-11 20:05:00,
2013-12-11 15:10:00,19.6,10.3,30.25,SW,225,0.0,7.6,67,0.00,,,0.00,WUHU21623XXSP,2013-12-11 20:10:00,
2013-12-11 15:15:00,19.2,10.1,30.25,SW,225,0.0,7.6,67,0.00,,,0.00,WUHU21623XXSP,2013-12-11 20:15:00,
2013-12-11 15:20:00,19.2,9.9,30.25,SSW,202,0.0,0.0,67,0.00,,,0.00,WUHU21623XXSP,2013-12-11 20:20:00,
2013-12-11 15:25:00,18.9,9.3,30.25,North,0,0.0,7.6,66,0.00,,,0.00,WUHU21623XXSP,2013-12-11 20:25:00,
2013-12-11 15:30:00,18.5,8.9,30.25,North,0,3.8,11.0,66,0.00,,,0.00,WUHU21623XXSP,2013-12-11 20:30:00,
2013-12-11 15:35:00,18.3,9.1,30.25,SSW,202,0.0,11.0,67,0.00,,,0.00,WUHU21623XXSP,2013-12-11 20:35:00,
2013-12-11 15:40:00,18.1,9.0,30.25,North,0,6.9,6.9,67,0.00,,,0.00,WUHU21623XXSP,2013-12-11 20:40:00,
2013-12-11 15:45:00,17.8,8.6,30.25,North,0,2.2,6.9,67,0.00,,,0.00,WUHU21623XXSP,2013-12-11 20:45:00,
2013-12-11 15:50:00,17.8,8.6,30.26,SSW,202,0.0,6.7,67,0.00,,,0.00,WUHU21623XXSP,2013-12-11 20:50:00,
2013-12-11 15:55:00,17.8,8.6,30.26,North,0,0.0,2.2,67,0.00,,,0.00,WUHU21623XXSP,2013-12-11 20:55:00,
2013-12-11 16:00:00,17.8,8.6,30.26,SW,225,0.0,3.6,67,0.00,,,0.00,WUHU21623XXSP,2013-12-11 21:00:00,
2013-12-11 16:05:00,17.4,8.3,30.26,SW,225,0.0,3.6,67,0.00,,,0.00,WUHU21623XXSP,2013-12-11 21:05:00,
2013-12-11 16:10:00,17.4,8.3,30.26,SW,225,0.0,0.0,67,0.00,,,0.00,WUHU21623XXSP,2013-12-11 21:10:00,
2013-12-11 16:15:00,17.4,8.3,30.27,NNW,337,6.5,6.5,67,0.00,,,0.00,WUHU21623XXSP,2013-12-11 21:15:00,
2013-12-11 16:20:00,17.4,8.3,30.27,SSW,202,0.0,6.5,67,0.00,,,0.00,WUHU21623XXSP,2013-12-11 21:20:00,
2013-12-11 16:25:00,17.2,8.1,30.27,NNW,337,9.6,9.6,67,0.00,,,0.00,WUHU21623XXSP,2013-12-11 21:25:00,
2013-12-11 16:30:00,16.9,7.4,30.28,NNW,337,2.0,9.6,66,0.00,,,0.00,WUHU21623XXSP,2013-12-11 21:30:00,
2013-12-11 16:35:00,16.7,7.2,30.28,SSW,202,6.0,6.0,66,0.00,,,0.00,WUHU21623XXSP,2013-12-11 21:35:00,
2013-12-11 16:40:00,16.3,6.9,30.28,SW,225,0.0,6.0,66,0.00,,,0.00,WUHU21623XXSP,2013-12-11 21:40:00,
2013-12-11 16:45:00,16.2,6.7,30.28,SW,225,0.0,0.0,66,0.00,,,0.00,WUHU21623XXSP,2013-12-11 21:45:00,
2013-12-11 16:50:00,16.0,6.5,30.29,NNW,337,9.8,9.8,66,0.00,,,0.00,WUHU21623XXSP,2013-12-11 21:50:00,
2013-12-11 16:55:00,15.6,6.2,30.29,SW,225,0.0,9.8,66,0.00,,,0.00,WUHU21623XXSP,2013-12-11 21:55:00,
2013-12-11 17:00:00,15.4,6.3,30.29,North,0,0.0,5.4,67,0.00,,,0.00,WUHU21623XXSP,2013-12-11 22:00:00,
2013-12-11 17:05:00,15.3,6.2,30.29,NNW,337,0.0,5.4,67,0.00,,,0.00,WUHU21623XXSP,2013-12-11 22:05:00,
2013-12-11 17:10:00,14.9,5.5,30.29,SW,225,0.0,0.0,66,0.00,,,0.00,WUHU21623XXSP,2013-12-11 22:10:00,
2013-12-11 17:15:00,14.7,5.4,30.29,SSW,202,0.0,0.0,66,0.00,,,0.00,WUHU21623XXSP,2013-12-11 22:15:00,
2013-12-11 17:20:00,14.5,5.7,30.30,SW,225,0.0,0.0,67,0.00,,,0.00,WUHU21623XXSP,2013-12-11 22:20:00,
2013-12-11 17:25:00,14.2,5.2,30.30,SSW,202,0.0,0.0,67,0.00,,,0.00,WUHU21623XXSP,2013-12-11 22:25:00,
2013-12-11 17:30:00,14.0,5.2,30.30,SSW,202,0.0,0.0,67,0.00,,,0.00,WUHU21623XXSP,2013-12-11 22:30:00,
2013-12-11 17:35:00,13.8,4.9,30.30,SSW,202,0.0,0.0,67,0.00,,,0.00,WUHU21623XXSP,2013-12-11 22:35:00,
2013-12-11 17:40:00,13.6,4.7,30.30,SSW,202,0.0,0.0,67,0.00,,,0.00,WUHU21623XXSP,2013-12-11 22:40:00,
2013-12-11 17:45:00,13.3,4.3,30.31,SW,225,0.0,0.0,67,0.00,,,0.00,WUHU21623XXSP,2013-12-11 22:45:00,
2013-12-11 17:50:00,13.3,4.3,30.31,SSW,202,0.0,0.0,67,0.00,,,0.00,WUHU21623XXSP,2013-12-11 22:50:00,
2013-12-11 17:55:00,13.1,4.2,30.31,SW,225,0.0,0.0,67,0.00,,,0.00,WUHU21623XXSP,2013-12-11 22:55:00,
2013-12-11 18:00:00,12.9,4.0,30.32,SSW,202,0.0,0.0,67,0.00,,,0.00,WUHU21623XXSP,2013-12-11 23:00:00,
2013-12-11 18:05:00,12.7,3.8,30.31,SW,225,0.0,0.0,67,0.00,,,0.00,WUHU21623XXSP,2013-12-11 23:05:00,
2013-12-11 18:10:00,12.7,3.8,30.32,NNW,337,0.0,0.0,67,0.00,,,0.00,WUHU21623XXSP,2013-12-11 23:10:00,
2013-12-11 18:15:00,12.6,3.6,30.31,SSW,202,0.0,0.0,67,0.00,,,0.00,WUHU21623XXSP,2013-12-11 23:15:00,
2013-12-11 18:20:00,12.6,3.6,30.32,NNW,337,4.3,4.3,67,0.00,,,0.00,WUHU21623XXSP,2013-12-11 23:20:00,
2013-12-11 18:25:00,12.4,3.4,30.32,SSW,202,0.0,4.3,67,0.00,,,0.00,WUHU21623XXSP,2013-12-11 23:25:00,
2013-12-11 18:30:00,12.2,3.3,30.32,SSW,202,0.0,3.8,67,0.00,,,0.00,WUHU21623XXSP,2013-12-11 23:30:00,
2013-12-11 18:35:00,12.0,3.1,30.33,SSW,202,0.0,8.5,67,0.00,,,0.00,WUHU21623XXSP,2013-12-11 23:35:00,
2013-12-11 18:40:00,12.0,3.1,30.33,SW,225,0.0,8.5,67,0.00,,,0.00,WUHU21623XXSP,2013-12-11 23:40:00,
2013-12-11 18:45:00,12.0,3.1,30.33,SW,225,0.0,0.0,67,0.00,,,0.00,WUHU21623XXSP,2013-12-11 23:45:00,
2013-12-11 18:50:00,11.8,3.2,30.33,SW,225,0.0,0.0,68,0.00,,,0.00,WUHU21623XXSP,2013-12-11 23:50:00,
2013-12-11 18:55:00,11.7,3.1,30.34,SW,225,0.0,0.0,68,0.00,,,0.00,WUHU21623XXSP,2013-12-11 23:55:00,
2013-12-11 19:00:00,11.5,2.9,30.35,North,0,0.0,0.0,68,0.00,,,0.00,WUHU21623XXSP,2013-12-12 00:00:00,
2013-12-11 19:05:00,11.3,2.7,30.35,SSW,202,0.0,0.0,68,0.00,,,0.00,WUHU21623XXSP,2013-12-12 00:05:00,
2013-12-11 19:10:00,11.1,2.5,30.35,SW,225,0.0,0.0,68,0.00,,,0.00,WUHU21623XXSP,2013-12-12 00:10:00,
2013-12-11 19:15:00,11.1,2.5,30.35,SSW,202,0.0,0.0,68,0.00,,,0.00,WUHU21623XXSP,2013-12-12 00:15:00,
2013-12-11 19:20:00,10.9,2.4,30.35,SW,225,0.0,0.0,68,0.00,,,0.00,WUHU21623XXSP,2013-12-12 00:20:00,
2013-12-11 19:25:00,10.6,2.0,30.35,North,0,9.6,9.6,68,0.00,,,0.00,WUHU21623XXSP,2013-12-12 00:25:00,
2013-12-11 19:30:00,10.6,2.0,30.36,SSW,202,0.0,9.6,68,0.00,,,0.00,WUHU21623XXSP,2013-12-12 00:30:00,
2013-12-11 19:35:00,10.6,2.0,30.36,SW,225,0.0,0.0,68,0.00,,,0.00,WUHU21623XXSP,2013-12-12 00:35:00,
2013-12-11 19:40:00,10.2,1.7,30.36,SW,225,0.0,0.0,68,0.00,,,0.00,WUHU21623XXSP,2013-12-12 00:40:00,
2013-12-11 19:45:00,10.2,1.7,30.37,SW,225,0.0,2.7,68,0.00,,,0.00,WUHU21623XXSP,2013-12-12 00:45:00,
2013-12-11 19:50:00,10.0,1.5,30.37,SSW,202,0.0,2.7,68,0.00,,,0.00,WUHU21623XXSP,2013-12-12 00:50:00,
2013-12-11 19:55:00,10.0,1.5,30.37,SSW,202,0.0,0.0,68,0.00,,,0.00,WUHU21623XXSP,2013-12-12 00:55:00,
2013-12-11 20:00:00,9.9,1.3,30.37,North,0,0.0,0.0,68,0.00,,,0.00,WUHU21623XXSP,2013-12-12 01:00:00,
2013-12-11 20:05:00,9.7,1.2,30.37,SW,225,0.0,0.0,68,0.00,,,0.00,WUHU21623XXSP,2013-12-12 01:05:00,
2013-12-11 20:10:00,9.7,1.2,30.37,SSW,202,0.0,0.0,68,0.00,,,0.00,WUHU21623XXSP,2013-12-12 01:10:00,
2013-12-11 20:15:00,9.5,1.3,30.37,SSW,202,0.0,0.0,69,0.00,,,0.00,WUHU21623XXSP,2013-12-12 01:15:00,
2013-12-11 20:20:00,9.5,1.3,30.38,NNW,337,0.0,5.4,69,0.00,,,0.00,WUHU21623XXSP,2013-12-12 01:20:00,
2013-12-11 20:25:00,9.3,1.2,30.38,North,0,0.0,5.4,69,0.00,,,0.00,WUHU21623XXSP,2013-12-12 01:25:00,
2013-12-11 20:30:00,9.1,1.0,30.38,SW,225,2.2,2.2,69,0.00,,,0.00,WUHU21623XXSP,2013-12-12 01:30:00,
2013-12-11 20:35:00,9.1,1.0,30.39,SW,225,0.0,2.2,69,0.00,,,0.00,WUHU21623XXSP,2013-12-12 01:35:00,
2013-12-11 20:40:00,9.0,0.8,30.39,SW,225,0.0,0.0,69,0.00,,,0.00,WUHU21623XXSP,2013-12-12 01:40:00,
2013-12-11 20:45:00,8.8,0.7,30.39,SSW,202,0.0,0.0,69,0.00,,,0.00,WUHU21623XXSP,2013-12-12 01:45:00,
2013-12-11 20:50:00,8.6,0.5,30.39,SSW,202,0.0,0.0,69,0.00,,,0.00,WUHU21623XXSP,2013-12-12 01:50:00,
2013-12-11 20:55:00,8.4,0.7,30.39,North,0,0.0,0.0,70,0.00,,,0.00,WUHU21623XXSP,2013-12-12 01:55:00,
2013-12-11 21:00:00,8.4,0.7,30.38,North,0,0.0,0.0,70,0.00,,,0.00,WUHU21623XXSP,2013-12-12 02:00:00,
2013-12-11 21:05:00,8.4,0.7,30.38,North,0,0.0,0.0,70,0.00,,,0.00,WUHU21623XXSP,2013-12-12 02:05:00,
2013-12-11 21:10:00,8.2,0.5,30.38,SW,225,0.0,0.0,70,0.00,,,0.00,WUHU21623XXSP,2013-12-12 02:10:00,
2013-12-11 21:15:00,8.1,0.3,30.39,SW,225,0.0,0.0,70,0.00,,,0.00,WUHU21623XXSP,2013-12-12 02:15:00,
2013-12-11 21:20:00,7.9,0.1,30.39,SSW,202,0.0,0.0,70,0.00,,,0.00,WUHU21623XXSP,2013-12-12 02:20:00,
2013-12-11 21:25:00,7.9,0.1,30.39,SW,225,0.0,0.0,70,0.00,,,0.00,WUHU21623XXSP,2013-12-12 02:25:00,
2013-12-11 21:30:00,7.7,0.0,30.39,SW,225,0.0,0.0,70,0.00,,,0.00,WUHU21623XXSP,2013-12-12 02:30:00,
2013-12-11 21:35:00,7.5,0.0,30.39,North,0,0.0,0.0,70,0.00,,,0.00,WUHU21623XXSP,2013-12-12 02:35:00,
2013-12-11 21:40:00,7.5,0.1,30.39,SW,225,0.0,0.0,71,0.00,,,0.00,WUHU21623XXSP,2013-12-12 02:40:00,
2013-12-11 21:45:00,7.3,-0.1,30.38,SW,225,0.0,0.0,71,0.00,,,0.00,WUHU21623XXSP,2013-12-12 02:45:00,
2013-12-11 21:50:00,7.3,-0.1,30.39,SW,225,0.0,0.0,71,0.00,,,0.00,WUHU21623XXSP,2013-12-12 02:50:00,
2013-12-11 21:55:00,7.0,-0.5,30.39,SW,225,0.0,0.0,71,0.00,,,0.00,WUHU21623XXSP,2013-12-12 02:55:00,
2013-12-11 22:00:00,7.0,-0.5,30.39,SSW,202,0.0,0.0,71,0.00,,,0.00,WUHU21623XXSP,2013-12-12 03:00:00,
2013-12-11 22:05:00,7.0,-0.5,30.39,SW,225,0.0,0.0,71,0.00,,,0.00,WUHU21623XXSP,2013-12-12 03:05:00,
2013-12-11 22:10:00,7.0,-0.5,30.40,SW,225,4.9,4.9,71,0.00,,,0.00,WUHU21623XXSP,2013-12-12 03:10:00,
2013-12-11 22:15:00,6.6,-0.5,30.40,SW,225,0.0,4.9,72,0.00,,,0.00,WUHU21623XXSP,2013-12-12 03:15:00,
2013-12-11 22:20:00,6.6,-0.5,30.40,SSW,202,0.0,2.5,72,0.00,,,0.00,WUHU21623XXSP,2013-12-12 03:20:00,
2013-12-11 22:25:00,6.6,-0.5,30.40,SW,225,0.0,0.0,72,0.00,,,0.00,WUHU21623XXSP,2013-12-12 03:25:00,
2013-12-11 22:30:00,6.6,-0.5,30.40,SW,225,0.0,0.0,72,0.00,,,0.00,WUHU21623XXSP,2013-12-12 03:30:00,
2013-12-11 22:35:00,6.4,-0.7,30.40,SSW,202,0.0,0.0,72,0.00,,,0.00,WUHU21623XXSP,2013-12-12 03:35:00,
2013-12-11 22:40:00,6.4,-0.7,30.40,SW,225,0.0,0.0,72,0.00,,,0.00,WUHU21623XXSP,2013-12-12 03:40:00,
2013-12-11 22:45:00,6.4,-0.4,30.40,SW,225,0.0,0.0,73,0.00,,,0.00,WUHU21623XXSP,2013-12-12 03:45:00,
2013-12-11 22:50:00,6.4,-0.4,30.40,SW,225,0.0,0.0,73,0.00,,,0.00,WUHU21623XXSP,2013-12-12 03:50:00,
2013-12-11 22:55:00,6.1,-0.8,30.40,SW,225,0.0,0.0,73,0.00,,,0.00,WUHU21623XXSP,2013-12-12 03:55:00,
2013-12-11 23:00:00,6.1,-0.8,30.40,SSW,202,0.0,0.0,73,0.00,,,0.00,WUHU21623XXSP,2013-12-12 04:00:00,
2013-12-11 23:05:00,6.1,-0.5,30.41,SW,225,0.0,0.0,74,0.00,,,0.00,WUHU21623XXSP,2013-12-12 04:05:00,
2013-12-11 23:10:00,6.1,-0.5,30.40,SW,225,0.0,0.0,74,0.00,,,0.00,WUHU21623XXSP,2013-12-12 04:10:00,
2013-12-11 23:15:00,6.1,-0.5,30.41,SSW,202,0.0,0.0,74,0.00,,,0.00,WUHU21623XXSP,2013-12-12 04:15:00,
2013-12-11 23:20:00,5.9,-0.7,30.41,SW,225,0.0,0.0,74,0.00,,,0.00,WUHU21623XXSP,2013-12-12 04:20:00,
2013-12-11 23:25:00,5.7,-0.9,30.41,SSW,202,0.0,0.0,74,0.00,,,0.00,WUHU21623XXSP,2013-12-12 04:25:00,
2013-12-11 23:30:00,5.7,-0.9,30.41,SW,225,0.0,0.0,74,0.00,,,0.00,WUHU21623XXSP,2013-12-12 04:30:00,
2013-12-11 23:35:00,5.7,-0.9,30.41,SW,225,0.0,0.0,74,0.00,,,0.00,WUHU21623XXSP,2013-12-12 04:35:00,
2013-12-11 23:40:00,5.7,-0.9,30.41,SW,225,0.0,0.0,74,0.00,,,0.00,WUHU21623XXSP,2013-12-12 04:40:00,
2013-12-11 23:45:00,5.5,-1.0,30.41,SW,225,0.0,0.0,74,0.00,,,0.00,WUHU21623XXSP,2013-12-12 04:45:00,
2013-12-11 23:50:00,5.7,-0.9,30.41,SW,225,0.0,0.0,74,0.00,,,0.00,WUHU21623XXSP,2013-12-12 04:50:00,
2013-12-11 23:55:00,5.7,-0.9,30.41,SW,225,0.0,0.0,74,0.00,,,0.00,WUHU21623XXSP,2013-12-12 04:55:00,